48.7°F
Current conditions from King Hill
Updated every 5 minutes
 
  Saturday October 25, 2014

Station Historical Data
Daily Summary for January 12, 2011 Units:  Metric    English   Both
« Previous Day
Next Day »
Daily Weekly Monthly Yearly Custom
  High: Low: Average:
Temperature: -7 °C -12.2 °C -8.9 °C
Dew Point: -8.8 °C -14.4 °C -11 °C
Humidity: 92% 81% 85%
Wind Speed: 11.3km/h 0km/h 4.2km/h
Wind Gust: 29km/h - -
Wind- - ESE
Pressure: 1014.1 hPa 1004.6 hPa -
Precipitation: 0 mm    
Historical Graphs
 
 
Tabular Data for January 12, 2011
Time Temperature Dew Point Pressure Wind Wind Speed Wind Gust Humidity Daily Rainfall
00:04 -11.7 °C -13.7 °C 1014.1 hPa Calm   3.2 km/h 85% 0 mm
00:09 -11.7 °C -13.7 °C 1014.1 hPa Calm   3.2 km/h 85% 0 mm
00:14 -11.7 °C -13.7 °C 1014.1 hPa Calm   1.6 km/h 85% 0 mm
00:19 -11.7 °C -13.7 °C 1014.1 hPa Calm   1.6 km/h 85% 0 mm
00:24 -11.7 °C -13.7 °C 1014.1 hPa Calm     85% 0 mm
00:29 -11.7 °C -13.7 °C 1014.1 hPa Calm     85% 0 mm
00:35 -11.8 °C -13.8 °C 1014.1 hPa Calm     85% 0 mm
00:44 -11.8 °C -13.8 °C 1013.8 hPa Calm     85% 0 mm
00:49 -11.7 °C -13.7 °C 1013.8 hPa Calm     85% 0 mm
00:55 -11.8 °C -13.8 °C 1013.4 hPa Calm     85% 0 mm
00:59 -11.8 °C -13.8 °C 1013.4 hPa Calm     85% 0 mm
01:05 -11.8 °C -13.8 °C 1013.4 hPa Calm     85% 0 mm
01:09 -11.5 °C -13.5 °C 1013.4 hPa Calm     85% 0 mm
01:14 -11.5 °C -13.5 °C 1013.1 hPa Calm     85% 0 mm
01:19 -11.7 °C -13.8 °C 1013.4 hPa Calm     84% 0 mm
01:24 -11.9 °C -14.1 °C 1013.1 hPa Calm   1.6 km/h 84% 0 mm
01:29 -12.1 °C -14.2 °C 1013.1 hPa Calm   1.6 km/h 84% 0 mm
01:34 -12.2 °C -14.4 °C 1012.8 hPa Calm   3.2 km/h 84% 0 mm
01:40 -12.2 °C -14.4 °C 1012.8 hPa Calm   3.2 km/h 84% 0 mm
01:44 -12.2 °C -14.4 °C 1012.8 hPa Calm   3.2 km/h 84% 0 mm
01:49 -12.2 °C -14.2 °C 1012.8 hPa Calm   1.6 km/h 85% 0 mm
01:55 -12.1 °C -14.1 °C 1012.8 hPa Calm   1.6 km/h 85% 0 mm
02:04 -11.7 °C -13.7 °C 1012.8 hPa Calm   3.2 km/h 85% 0 mm
02:09 -11.6 °C -13.6 °C 1012.4 hPa Calm   3.2 km/h 85% 0 mm
02:14 -11.8 °C -13.9 °C 1012.4 hPa Calm   1.6 km/h 84% 0 mm
02:19 -12 °C -14.2 °C 1012.4 hPa Calm   1.6 km/h 84% 0 mm
02:24 -12.1 °C -14.3 °C 1012.1 hPa Calm     84% 0 mm
02:29 -12.2 °C -14.3 °C 1012.1 hPa Calm     84% 0 mm
02:34 -12.1 °C -14.1 °C 1011.7 hPa Calm   1.6 km/h 85% 0 mm
02:39 -11.9 °C -13.9 °C 1011.7 hPa Calm   1.6 km/h 85% 0 mm
02:44 -11.9 °C -13.9 °C 1011.7 hPa Calm   1.6 km/h 85% 0 mm
02:49 -11.8 °C -13.8 °C 1011.7 hPa Calm   1.6 km/h 85% 0 mm
02:54 -11.8 °C -13.8 °C 1011.4 hPa Calm     85% 0 mm
02:59 -11.6 °C -13.6 °C 1011.7 hPa Calm   1.6 km/h 85% 0 mm
03:04 -11.4 °C -13.3 °C 1011.7 hPa Calm   1.6 km/h 86% 0 mm
03:09 -11.3 °C -13.2 °C 1011.7 hPa Calm     86% 0 mm
03:14 -11.1 °C -12.9 °C 1011.7 hPa Calm     86% 0 mm
03:19 -10.9 °C -12.8 °C 1011.4 hPa Calm     86% 0 mm
03:24 -10.8 °C -12.7 °C 1011.1 hPa Calm   3.2 km/h 86% 0 mm
03:29 -10.8 °C -12.8 °C 1010.7 hPa Calm   4.8 km/h 85% 0 mm
03:35 -10.8 °C -12.8 °C 1010.4 hPa Calm   4.8 km/h 85% 0 mm
03:39 -10.8 °C -12.8 °C 1010 hPa Calm   1.6 km/h 85% 0 mm
03:44 -10.7 °C -12.8 °C 1010 hPa Calm   3.2 km/h 85% 0 mm
03:49 -10.6 °C -12.7 °C 1009.4 hPa Calm   3.2 km/h 85% 0 mm
03:54 -10.4 °C -12.5 °C 1009.4 hPa Calm   4.8 km/h 85% 0 mm
03:59 -10.3 °C -12.3 °C 1009.4 hPa Calm   4.8 km/h 85% 0 mm
04:04 -10.1 °C -12.2 °C 1009.4 hPa Calm   3.2 km/h 85% 0 mm
04:09 -9.9 °C -12.1 °C 1009.4 hPa Calm   6.4 km/h 84% 0 mm
04:14 -9.8 °C -11.9 °C 1009.4 hPa Calm   6.4 km/h 84% 0 mm
04:19 -9.7 °C -12 °C 1009.4 hPa Calm   6.4 km/h 83% 0 mm
04:24 -9.6 °C -11.9 °C 1009.4 hPa NE 1.6 km/h 4.8 km/h 83% 0 mm
04:29 -9.4 °C -11.8 °C 1009.4 hPa Calm   6.4 km/h 83% 0 mm
04:34 -9.3 °C -11.8 °C 1009.4 hPa Calm   6.4 km/h 82% 0 mm
04:39 -9.3 °C -11.6 °C 1009 hPa NE 1.6 km/h 4.8 km/h 83% 0 mm
04:44 -9.3 °C -11.6 °C 1009 hPa Calm   4.8 km/h 83% 0 mm
04:49 -9.2 °C -11.7 °C 1009 hPa Calm   4.8 km/h 82% 0 mm
04:55 -9.1 °C -11.6 °C 1009 hPa Calm   4.8 km/h 82% 0 mm
05:04 -9.1 °C -11.6 °C 1008.7 hPa Calm   3.2 km/h 82% 0 mm
05:09 -9.1 °C -11.6 °C 1008.4 hPa Calm   3.2 km/h 82% 0 mm
05:14 -9.1 °C -11.6 °C 1008 hPa Calm   1.6 km/h 82% 0 mm
05:20 -9.2 °C -11.7 °C 1008 hPa Calm   1.6 km/h 82% 0 mm
05:30 -9 °C -11.5 °C 1007.7 hPa Calm   8 km/h 82% 0 mm
05:34 -8.9 °C -11.3 °C 1007.7 hPa Calm   8 km/h 83% 0 mm
05:39 -8.8 °C -11.2 °C 1007.7 hPa Calm   4.8 km/h 83% 0 mm
05:44 -8.8 °C -11.2 °C 1007.7 hPa Calm   4.8 km/h 83% 0 mm
05:49 -8.8 °C -11.3 °C 1007.7 hPa Calm   9.7 km/h 82% 0 mm
05:55 -8.8 °C -11.3 °C 1007.3 hPa NE 1.6 km/h 9.7 km/h 82% 0 mm
06:04 -8.7 °C -11.4 °C 1007.3 hPa NE 1.6 km/h 11.3 km/h 81% 0 mm
06:09 -8.8 °C -11.4 °C 1007 hPa Calm   6.4 km/h 81% 0 mm
06:14 -8.8 °C -11.5 °C 1007 hPa NNE 3.2 km/h 8 km/h 81% 0 mm
06:19 -8.9 °C -11.6 °C 1007 hPa NNE 3.2 km/h 8 km/h 81% 0 mm
06:24 -8.9 °C -11.6 °C 1007 hPa Calm   8 km/h 81% 0 mm
06:30 -9 °C -11.7 °C 1007 hPa Calm   6.4 km/h 81% 0 mm
06:34 -9.1 °C -11.8 °C 1007.3 hPa Calm   3.2 km/h 81% 0 mm
06:39 -9.2 °C -11.9 °C 1007 hPa Calm   3.2 km/h 81% 0 mm
06:44 -9.4 °C -12.1 °C 1007 hPa NNE 1.6 km/h 3.2 km/h 81% 0 mm
06:49 -9.5 °C -12.2 °C 1007 hPa Calm   3.2 km/h 81% 0 mm
06:54 -9.6 °C -12.2 °C 1007 hPa NNE 1.6 km/h 4.8 km/h 81% 0 mm
06:59 -9.7 °C -12.2 °C 1007 hPa Calm   6.4 km/h 82% 0 mm
07:04 -9.7 °C -12.2 °C 1007 hPa Calm   6.4 km/h 82% 0 mm
07:09 -9.7 °C -12.2 °C 1006.7 hPa Calm   4.8 km/h 82% 0 mm
07:14 -9.7 °C -12.2 °C 1006.7 hPa Calm   4.8 km/h 82% 0 mm
07:19 -9.8 °C -12.3 °C 1006.7 hPa Calm   3.2 km/h 82% 0 mm
07:24 -9.8 °C -12.3 °C 1006.7 hPa Calm   4.8 km/h 82% 0 mm
07:29 -9.8 °C -12.3 °C 1006.7 hPa Calm   4.8 km/h 82% 0 mm
07:34 -9.8 °C -12.2 °C 1006.3 hPa Calm   3.2 km/h 83% 0 mm
07:39 -9.7 °C -12.1 °C 1006.3 hPa Calm   3.2 km/h 83% 0 mm
07:44 -9.7 °C -12 °C 1006.3 hPa Calm   8 km/h 83% 0 mm
07:49 -9.6 °C -11.9 °C 1006.3 hPa Calm   8 km/h 83% 0 mm
07:54 -9.6 °C -12.1 °C 1006 hPa NNW 3.2 km/h 8 km/h 82% 0 mm
07:59 -9.6 °C -12.1 °C 1006 hPa NNW 1.6 km/h 6.4 km/h 82% 0 mm
08:04 -9.7 °C -12.4 °C 1006 hPa Calm   6.4 km/h 81% 0 mm
08:09 -9.8 °C -12.4 °C 1006 hPa Calm   6.4 km/h 81% 0 mm
08:14 -9.9 °C -12.4 °C 1006 hPa NNW 1.6 km/h 4.8 km/h 82% 0 mm
08:19 -10 °C -12.5 °C 1006 hPa NNW 1.6 km/h 4.8 km/h 82% 0 mm
08:24 -10.2 °C -12.7 °C 1006 hPa NW 1.6 km/h 4.8 km/h 82% 0 mm
08:30 -10.3 °C -12.8 °C 1006 hPa Calm   4.8 km/h 82% 0 mm
08:34 -10.3 °C -12.8 °C 1006 hPa NW 1.6 km/h 6.4 km/h 82% 0 mm
08:39 -10.4 °C -12.8 °C 1006 hPa NNW 1.6 km/h 6.4 km/h 83% 0 mm
08:44 -10.4 °C -12.8 °C 1006.3 hPa NNW 1.6 km/h 6.4 km/h 83% 0 mm
08:49 -10.6 °C -12.9 °C 1006.3 hPa WNW 4.8 km/h 6.4 km/h 83% 0 mm
08:54 -10.7 °C -13.1 °C 1006.3 hPa NW 1.6 km/h 6.4 km/h 83% 0 mm
08:59 -10.8 °C -12.9 °C 1006.3 hPa Calm   6.4 km/h 84% 0 mm
09:04 -10.8 °C -12.9 °C 1006.7 hPa NW 1.6 km/h 6.4 km/h 84% 0 mm
09:09 -10.8 °C -12.9 °C 1006.7 hPa Calm   6.4 km/h 84% 0 mm
09:14 -10.8 °C -12.9 °C 1006.7 hPa NW 1.6 km/h 4.8 km/h 84% 0 mm
09:19 -10.8 °C -12.9 °C 1006.7 hPa Calm   4.8 km/h 84% 0 mm
09:24 -10.7 °C -12.9 °C 1006.7 hPa Calm   4.8 km/h 84% 0 mm
09:30 -10.7 °C -12.8 °C 1006.7 hPa Calm   3.2 km/h 84% 0 mm
09:34 -10.6 °C -12.7 °C 1006.7 hPa Calm   3.2 km/h 84% 0 mm
09:39 -10.5 °C -12.7 °C 1006.3 hPa Calm   3.2 km/h 84% 0 mm
09:44 -10.4 °C -12.6 °C 1006.3 hPa Calm   4.8 km/h 84% 0 mm
09:49 -10.4 °C -12.6 °C 1006.3 hPa NW 1.6 km/h 4.8 km/h 84% 0 mm
09:54 -10.3 °C -12.4 °C 1006.3 hPa Calm   3.2 km/h 84% 0 mm
09:59 -10.2 °C -12.4 °C 1006.3 hPa Calm   1.6 km/h 84% 0 mm
10:04 -10.2 °C -12.3 °C 1006.3 hPa NW 1.6 km/h 4.8 km/h 84% 0 mm
10:09 -10.2 °C -11.3 °C 1006.3 hPa NW 1.6 km/h 8 km/h 92% 0 mm
10:14 -10.2 °C -12.3 °C 1006.3 hPa Calm   8 km/h 84% 0 mm
10:19 -10.1 °C -12.3 °C 1006.3 hPa Calm   3.2 km/h 84% 0 mm
10:24 -10.1 °C -12.2 °C 1006.3 hPa NNE 1.6 km/h 6.4 km/h 84% 0 mm
10:29 -9.9 °C -12.1 °C 1006.3 hPa NNE 3.2 km/h 9.7 km/h 84% 0 mm
10:34 -9.9 °C -11.9 °C 1006 hPa NNE 1.6 km/h 11.3 km/h 85% 0 mm
10:39 -9.8 °C -11.9 °C 1006 hPa NNE 1.6 km/h 11.3 km/h 85% 0 mm
10:44 -9.8 °C -11.8 °C 1006 hPa NNE 3.2 km/h 8 km/h 85% 0 mm
10:49 -9.7 °C -11.8 °C 1006 hPa NNE 3.2 km/h 9.7 km/h 85% 0 mm
10:54 -9.7 °C -11.8 °C 1006 hPa NE 3.2 km/h 11.3 km/h 85% 0 mm
10:59 -9.7 °C -11.7 °C 1005.6 hPa NNE 3.2 km/h 12.9 km/h 85% 0 mm
11:04 -9.6 °C -11.6 °C 1005.6 hPa NNE 3.2 km/h 14.5 km/h 85% 0 mm
11:09 -9.5 °C -11.6 °C 1005.6 hPa NNE 1.6 km/h 14.5 km/h 85% 0 mm
11:14 -9.4 °C -11.4 °C 1005.3 hPa NNE 3.2 km/h 14.5 km/h 85% 0 mm
11:19 -9.3 °C -11.2 °C 1005.3 hPa NE 3.2 km/h 16.1 km/h 86% 0 mm
11:24 -9.2 °C -11.1 °C 1005.3 hPa NNE 4.8 km/h 16.1 km/h 86% 0 mm
11:29 -9.1 °C -10.9 °C 1005.3 hPa NNE 3.2 km/h 17.7 km/h 86% 0 mm
11:34 -8.9 °C -10.8 °C 1005.3 hPa NNE 3.2 km/h 17.7 km/h 86% 0 mm
11:39 -8.8 °C -10.7 °C 1005.3 hPa NNE 1.6 km/h 11.3 km/h 86% 0 mm
11:44 -8.7 °C -10.6 °C 1005.3 hPa NNE 4.8 km/h 11.3 km/h 86% 0 mm
11:49 -8.7 °C -10.6 °C 1005.3 hPa NNE 4.8 km/h 16.1 km/h 86% 0 mm
11:54 -8.6 °C -10.5 °C 1005.3 hPa North 3.2 km/h 16.1 km/h 86% 0 mm
11:59 -8.4 °C -10.4 °C 1005 hPa NNE 4.8 km/h 19.3 km/h 86% 0 mm
12:04 -8.4 °C -10.3 °C 1005 hPa NNE 6.4 km/h 20.9 km/h 86% 0 mm
12:09 -8.3 °C -10.2 °C 1005 hPa Calm   20.9 km/h 86% 0 mm
12:14 -8.2 °C -10.2 °C 1005 hPa North 4.8 km/h 16.1 km/h 86% 0 mm
12:19 -8.2 °C -10.1 °C 1005 hPa NNE 6.4 km/h 20.9 km/h 86% 0 mm
12:24 -8.1 °C -10.1 °C 1005 hPa NNE 1.6 km/h 20.9 km/h 86% 0 mm
12:29 -8.1 °C -10 °C 1005 hPa NNE 1.6 km/h 20.9 km/h 86% 0 mm
12:34 -8 °C -9.9 °C 1005 hPa North 4.8 km/h 20.9 km/h 86% 0 mm
12:39 -8 °C -9.9 °C 1005 hPa North 3.2 km/h 17.7 km/h 86% 0 mm
12:44 -8 °C -9.9 °C 1005 hPa Calm   16.1 km/h 86% 0 mm
12:49 -8.1 °C -10 °C 1004.6 hPa North 4.8 km/h 12.9 km/h 86% 0 mm
12:54 -8.2 °C -10.1 °C 1004.6 hPa North 1.6 km/h 12.9 km/h 86% 0 mm
12:59 -8.2 °C -10.1 °C 1004.6 hPa NNE 3.2 km/h 12.9 km/h 86% 0 mm
13:04 -8.2 °C -10.2 °C 1004.6 hPa NNE 6.4 km/h 17.7 km/h 86% 0 mm
13:09 -8.2 °C -10.2 °C 1004.6 hPa NNE 3.2 km/h 17.7 km/h 86% 0 mm
13:14 -8.2 °C -10.2 °C 1004.6 hPa NNE 1.6 km/h 11.3 km/h 86% 0 mm
13:19 -8.2 °C -10.2 °C 1004.6 hPa North 1.6 km/h 14.5 km/h 86% 0 mm
13:24 -8.2 °C -10.1 °C 1004.6 hPa North 4.8 km/h 16.1 km/h 86% 0 mm
13:29 -8.2 °C -10.1 °C 1004.6 hPa NNE 4.8 km/h 16.1 km/h 86% 0 mm
13:34 -8.2 °C -10.2 °C 1004.6 hPa NNE 6.4 km/h 16.1 km/h 86% 0 mm
13:39 -8.2 °C -10.2 °C 1004.6 hPa NNE 3.2 km/h 16.1 km/h 86% 0 mm
13:44 -8.2 °C -10.2 °C 1004.6 hPa North 4.8 km/h 17.7 km/h 86% 0 mm
13:49 -8.2 °C -10.1 °C 1004.6 hPa NNE 9.7 km/h 17.7 km/h 86% 0 mm
13:54 -8.2 °C -10.1 °C 1004.6 hPa North 4.8 km/h 19.3 km/h 86% 0 mm
13:59 -8.2 °C -10.1 °C 1004.6 hPa NNE 3.2 km/h 19.3 km/h 86% 0 mm
14:04 -8.1 °C -10.1 °C 1004.6 hPa North 3.2 km/h 11.3 km/h 86% 0 mm
14:09 -8.1 °C -10 °C 1004.6 hPa North 6.4 km/h 17.7 km/h 86% 0 mm
14:14 -8.1 °C -10 °C 1004.6 hPa North 6.4 km/h 20.9 km/h 86% 0 mm
14:19 -8.1 °C -10 °C 1004.6 hPa North 4.8 km/h 20.9 km/h 86% 0 mm
14:24 -8 °C -9.9 °C 1004.6 hPa North 3.2 km/h 16.1 km/h 86% 0 mm
14:29 -7.9 °C -9.9 °C 1004.6 hPa North 3.2 km/h 19.3 km/h 86% 0 mm
14:34 -7.9 °C -9.9 °C 1005 hPa NNE 8 km/h 19.3 km/h 86% 0 mm
14:39 -7.9 °C -9.9 °C 1005 hPa North 3.2 km/h 19.3 km/h 86% 0 mm
14:44 -7.9 °C -9.9 °C 1005 hPa NNE 6.4 km/h 24.1 km/h 86% 0 mm
14:49 -7.9 °C -9.9 °C 1005 hPa North 6.4 km/h 24.1 km/h 86% 0 mm
14:54 -7.9 °C -9.8 °C 1005 hPa North 4.8 km/h 20.9 km/h 86% 0 mm
14:59 -7.8 °C -9.8 °C 1005.3 hPa NNE 6.4 km/h 16.1 km/h 86% 0 mm
15:04 -7.8 °C -9.8 °C 1005.3 hPa North 8 km/h 17.7 km/h 86% 0 mm
15:09 -7.8 °C -9.8 °C 1005.3 hPa NNE 6.4 km/h 17.7 km/h 86% 0 mm
15:14 -7.8 °C -9.8 °C 1005.3 hPa North 4.8 km/h 17.7 km/h 86% 0 mm
15:19 -7.8 °C -9.7 °C 1005.6 hPa North 4.8 km/h 17.7 km/h 86% 0 mm
15:24 -7.8 °C -9.7 °C 1005.6 hPa North 6.4 km/h 16.1 km/h 86% 0 mm
15:30 -7.8 °C -9.7 °C 1005.6 hPa North 4.8 km/h 19.3 km/h 86% 0 mm
15:35 -7.8 °C -9.7 °C 1005.6 hPa North 4.8 km/h 19.3 km/h 86% 0 mm
15:44 -7.7 °C -9.7 °C 1005.6 hPa North 3.2 km/h 12.9 km/h 86% 0 mm
15:49 -7.7 °C -9.6 °C 1005.6 hPa North 6.4 km/h 16.1 km/h 86% 0 mm
15:54 -7.7 °C -9.6 °C 1005.6 hPa North 8 km/h 16.1 km/h 86% 0 mm
15:59 -7.7 °C -9.6 °C 1006 hPa North 6.4 km/h 17.7 km/h 86% 0 mm
16:04 -7.7 °C -9.6 °C 1006 hPa North 6.4 km/h 17.7 km/h 86% 0 mm
16:09 -7.6 °C -9.6 °C 1006 hPa North 6.4 km/h 22.5 km/h 86% 0 mm
16:14 -7.6 °C -9.5 °C 1006 hPa North 6.4 km/h 22.5 km/h 86% 0 mm
16:19 -7.6 °C -9.5 °C 1006 hPa North 3.2 km/h 22.5 km/h 86% 0 mm
16:24 -7.5 °C -9.4 °C 1006 hPa North 4.8 km/h 17.7 km/h 86% 0 mm
16:29 -7.5 °C -9.4 °C 1006.3 hPa North 6.4 km/h 17.7 km/h 86% 0 mm
16:34 -7.5 °C -9.4 °C 1006.3 hPa North 6.4 km/h 22.5 km/h 86% 0 mm
16:39 -7.4 °C -9.2 °C 1006.3 hPa North 6.4 km/h 22.5 km/h 87% 0 mm
16:44 -7.4 °C -9.2 °C 1006.3 hPa North 8 km/h 20.9 km/h 87% 0 mm
16:49 -7.4 °C -9.2 °C 1006.3 hPa North 11.3 km/h 29 km/h 87% 0 mm
16:54 -7.4 °C -9.2 °C 1006.3 hPa NNE 6.4 km/h 29 km/h 87% 0 mm
16:59 -7.3 °C -9.1 °C 1006.7 hPa North 6.4 km/h 20.9 km/h 87% 0 mm
17:04 -7.3 °C -9.1 °C 1006.7 hPa North 6.4 km/h 19.3 km/h 87% 0 mm
17:09 -7.3 °C -9.1 °C 1006.7 hPa North 6.4 km/h 14.5 km/h 87% 0 mm
17:14 -7.3 °C -9.1 °C 1006.7 hPa NNE 4.8 km/h 16.1 km/h 87% 0 mm
17:19 -7.3 °C -9.1 °C 1006.7 hPa NNE 3.2 km/h 16.1 km/h 87% 0 mm
17:24 -7.2 °C -9 °C 1007 hPa NNE 8 km/h 19.3 km/h 87% 0 mm
17:29 -7.2 °C -9 °C 1007 hPa NNE 8 km/h 25.7 km/h 87% 0 mm
17:34 -7.2 °C -8.9 °C 1007 hPa NNE 4.8 km/h 25.7 km/h 87% 0 mm
17:39 -7.2 °C -8.9 °C 1007 hPa North 6.4 km/h 17.7 km/h 87% 0 mm
17:44 -7.2 °C -8.9 °C 1007 hPa NNE 3.2 km/h 17.7 km/h 87% 0 mm
17:49 -7.1 °C -8.9 °C 1007.3 hPa North 8 km/h 22.5 km/h 87% 0 mm
17:55 -7.1 °C -8.9 °C 1007.3 hPa North 3.2 km/h 22.5 km/h 87% 0 mm
18:04 -7.1 °C -8.8 °C 1007.3 hPa North 4.8 km/h 22.5 km/h 87% 0 mm
18:09 -7.1 °C -8.8 °C 1007.3 hPa North 4.8 km/h 22.5 km/h 87% 0 mm
18:14 -7.1 °C -8.8 °C 1007.3 hPa North 3.2 km/h 22.5 km/h 87% 0 mm
18:19 -7.1 °C -8.8 °C 1007.7 hPa NNE 1.6 km/h 14.5 km/h 87% 0 mm
18:24 -7 °C -8.8 °C 1007.7 hPa North 3.2 km/h 19.3 km/h 87% 0 mm
18:29 -7 °C -8.8 °C 1007.7 hPa NNE 4.8 km/h 19.3 km/h 87% 0 mm
18:34 -7 °C -8.8 °C 1007.7 hPa North 3.2 km/h 16.1 km/h 87% 0 mm
18:39 -7 °C -8.8 °C 1007.7 hPa NNE 4.8 km/h 12.9 km/h 87% 0 mm
18:44 -7.1 °C -8.8 °C 1007.7 hPa North 3.2 km/h 16.1 km/h 87% 0 mm
18:49 -7.1 °C -8.8 °C 1007.7 hPa North 3.2 km/h 25.7 km/h 87% 0 mm
18:54 -7.1 °C -8.8 °C 1007.7 hPa NNE 6.4 km/h 25.7 km/h 87% 0 mm
18:59 -7.1 °C -8.9 °C 1007.7 hPa North 3.2 km/h 20.9 km/h 87% 0 mm
19:04 -7.1 °C -8.9 °C 1007.7 hPa North 1.6 km/h 17.7 km/h 87% 0 mm
19:09 -7.1 °C -8.9 °C 1008 hPa North 4.8 km/h 16.1 km/h 87% 0 mm
19:14 -7.2 °C -8.9 °C 1008 hPa North 6.4 km/h 17.7 km/h 87% 0 mm
19:19 -7.2 °C -8.9 °C 1008 hPa NNW 3.2 km/h 17.7 km/h 87% 0 mm
19:24 -7.2 °C -8.9 °C 1008 hPa North 3.2 km/h 19.3 km/h 87% 0 mm
19:30 -7.2 °C -9 °C 1008 hPa North 6.4 km/h 20.9 km/h 87% 0 mm
19:34 -7.2 °C -9 °C 1008 hPa North 9.7 km/h 20.9 km/h 87% 0 mm
19:39 -7.2 °C -9 °C 1008.4 hPa North 3.2 km/h 17.7 km/h 87% 0 mm
19:44 -7.2 °C -9 °C 1008.4 hPa NNW 6.4 km/h 14.5 km/h 87% 0 mm
19:49 -7.3 °C -9.1 °C 1008.4 hPa North 6.4 km/h 16.1 km/h 87% 0 mm
19:54 -7.3 °C -9.1 °C 1008.4 hPa North 6.4 km/h 17.7 km/h 87% 0 mm
19:59 -7.3 °C -9.1 °C 1008.7 hPa North 4.8 km/h 17.7 km/h 87% 0 mm
20:04 -7.3 °C -9.1 °C 1008.7 hPa North 4.8 km/h 11.3 km/h 87% 0 mm
20:09 -7.3 °C -9.1 °C 1008.7 hPa NNE 3.2 km/h 11.3 km/h 87% 0 mm
20:14 -7.3 °C -9.1 °C 1008.7 hPa North 3.2 km/h 14.5 km/h 87% 0 mm
20:19 -7.3 °C -9.1 °C 1008.7 hPa NNE 3.2 km/h 16.1 km/h 87% 0 mm
20:24 -7.3 °C -9.1 °C 1008.7 hPa North 4.8 km/h 16.1 km/h 87% 0 mm
20:29 -7.3 °C -9.1 °C 1009 hPa NNW 4.8 km/h 25.7 km/h 87% 0 mm
20:34 -7.3 °C -9.1 °C 1009 hPa North 3.2 km/h 25.7 km/h 87% 0 mm
20:39 -7.3 °C -9.1 °C 1009 hPa NNE 1.6 km/h 16.1 km/h 87% 0 mm
20:44 -7.3 °C -9.1 °C 1009 hPa North 4.8 km/h 20.9 km/h 87% 0 mm
20:49 -7.3 °C -9.1 °C 1009 hPa NNE 4.8 km/h 20.9 km/h 87% 0 mm
20:55 -7.3 °C -9.1 °C 1009 hPa NNE 3.2 km/h 16.1 km/h 87% 0 mm
21:04 -7.3 °C -9.1 °C 1009 hPa North 4.8 km/h 16.1 km/h 87% 0 mm
21:09 -7.3 °C -9.1 °C 1009.4 hPa North 3.2 km/h 16.1 km/h 87% 0 mm
21:14 -7.3 °C -9.1 °C 1009.4 hPa North 6.4 km/h 14.5 km/h 87% 0 mm
21:19 -7.3 °C -9.1 °C 1009.4 hPa NNE 4.8 km/h 16.1 km/h 87% 0 mm
21:24 -7.3 °C -9.1 °C 1009.7 hPa NNE 4.8 km/h 17.7 km/h 87% 0 mm
21:29 -7.3 °C -9.1 °C 1009.7 hPa North 4.8 km/h 17.7 km/h 87% 0 mm
21:34 -7.4 °C -9.2 °C 1009.7 hPa NNE 3.2 km/h 17.7 km/h 87% 0 mm
21:39 -7.4 °C -9.2 °C 1009.7 hPa North 6.4 km/h 12.9 km/h 87% 0 mm
21:44 -7.4 °C -9.4 °C 1009.7 hPa North 6.4 km/h 19.3 km/h 86% 0 mm
21:49 -7.5 °C -9.4 °C 1009.7 hPa North 4.8 km/h 19.3 km/h 86% 0 mm
21:55 -7.6 °C -9.5 °C 1009.7 hPa North 3.2 km/h 16.1 km/h 86% 0 mm
22:04 -7.7 °C -9.6 °C 1010 hPa North 4.8 km/h 14.5 km/h 86% 0 mm
22:09 -7.7 °C -9.7 °C 1010 hPa North 6.4 km/h 16.1 km/h 85% 0 mm
22:14 -7.7 °C -9.7 °C 1010 hPa NNE 8 km/h 19.3 km/h 85% 0 mm
22:19 -7.7 °C -9.8 °C 1010 hPa North 1.6 km/h 19.3 km/h 85% 0 mm
22:24 -7.7 °C -9.7 °C 1010.4 hPa North 3.2 km/h 9.7 km/h 86% 0 mm
22:29 -7.7 °C -9.7 °C 1010.4 hPa NNE 1.6 km/h 9.7 km/h 86% 0 mm
22:34 -7.7 °C -9.7 °C 1010.4 hPa NNW 4.8 km/h 9.7 km/h 86% 0 mm
22:39 -7.7 °C -9.7 °C 1010.4 hPa North 3.2 km/h 9.7 km/h 86% 0 mm
22:44 -7.7 °C -9.7 °C 1010.4 hPa North 4.8 km/h 12.9 km/h 86% 0 mm
22:49 -7.8 °C -9.7 °C 1010.7 hPa North 4.8 km/h 12.9 km/h 86% 0 mm
22:55 -7.8 °C -9.8 °C 1010.7 hPa North 3.2 km/h 19.3 km/h 86% 0 mm
22:59 -7.8 °C -9.8 °C 1010.7 hPa North 6.4 km/h 19.3 km/h 86% 0 mm
23:04 -7.9 °C -9.8 °C 1011.1 hPa NNE 3.2 km/h 17.7 km/h 86% 0 mm
23:09 -7.9 °C -9.8 °C 1011.1 hPa NNE 3.2 km/h 12.9 km/h 86% 0 mm
23:14 -7.9 °C -9.8 °C 1011.1 hPa North 1.6 km/h 12.9 km/h 86% 0 mm
23:19 -7.9 °C -9.8 °C 1011.1 hPa North 6.4 km/h 12.9 km/h 86% 0 mm
23:24 -7.9 °C -9.8 °C 1011.1 hPa North 1.6 km/h 9.7 km/h 86% 0 mm
23:29 -7.9 °C -9.9 °C 1011.1 hPa North 3.2 km/h 9.7 km/h 86% 0 mm
23:34 -7.9 °C -9.9 °C 1011.1 hPa North 4.8 km/h 17.7 km/h 86% 0 mm
23:39 -7.9 °C -9.9 °C 1011.1 hPa North 1.6 km/h 17.7 km/h 86% 0 mm
23:44 -7.9 °C -9.9 °C 1011.4 hPa North 1.6 km/h 16.1 km/h 86% 0 mm
23:49 -7.9 °C -9.9 °C 1011.4 hPa North 1.6 km/h 16.1 km/h 86% 0 mm
23:55 -7.9 °C -9.9 °C 1011.4 hPa North 1.6 km/h 12.9 km/h 86% 0 mm
23:59 -7.9 °C -9.9 °C 1011.4 hPa NNE 4.8 km/h 16.1 km/h 86% 0 mm
Westford Weather
Compliments of Weather Underground

 
 
Current Radar Loop:

Copyright © WestfordWeather.net 2007-2014. All rights reserved.